createdAt,value
2023-03-26T00:00:22.316Z,3.56
2023-03-26T00:03:26.253Z,3.46
2023-03-26T00:06:31.872Z,3.32
2023-03-26T00:09:34.917Z,3.35
2023-03-26T00:12:37.953Z,3.24
2023-03-26T00:15:40.908Z,3.11
2023-03-26T00:18:44.369Z,3.05
2023-03-26T00:21:48.387Z,2.91
2023-03-26T00:24:51.400Z,2.93
2023-03-26T00:27:54.735Z,2.87
2023-03-26T00:31:00.525Z,2.76
2023-03-26T00:34:05.580Z,2.66
2023-03-26T00:37:08.942Z,2.64
2023-03-26T00:40:12.560Z,2.66
2023-03-26T00:43:21.340Z,2.60
2023-03-26T00:46:26.182Z,2.55
2023-03-26T00:49:30.779Z,2.40
2023-03-26T00:52:36.174Z,2.27
2023-03-26T00:55:39.192Z,2.28
2023-03-26T00:58:42.784Z,2.20
2023-03-26T01:01:47.151Z,2.23
2023-03-26T01:05:02.881Z,2.12
2023-03-26T01:08:29.166Z,1.98
2023-03-26T01:11:34.850Z,1.87
2023-03-26T01:14:38.727Z,1.81
2023-03-26T01:17:43.182Z,1.87
2023-03-26T01:20:49.849Z,1.85
2023-03-26T01:24:07.107Z,1.90
2023-03-26T01:27:28.014Z,1.91
2023-03-26T01:31:03.269Z,1.89
2023-03-26T01:34:30.641Z,1.85
2023-03-26T01:37:58.836Z,1.59
2023-03-26T01:41:15.705Z,1.42
2023-03-26T01:44:24.121Z,1.30
2023-03-26T01:47:28.013Z,1.27
2023-03-26T01:50:31.334Z,1.16
2023-03-26T01:53:37.868Z,1.09
2023-03-26T01:56:49.711Z,1.04
2023-03-26T02:00:15.576Z,1.01
2023-03-26T02:03:23.974Z,0.93
2023-03-26T02:06:44.606Z,0.94
2023-03-26T02:09:52.741Z,0.89
2023-03-26T02:12:56.576Z,0.78
2023-03-26T02:16:02.301Z,0.80
2023-03-26T02:19:05.442Z,0.75
2023-03-26T02:22:11.365Z,0.71
2023-03-26T02:25:20.293Z,0.68
2023-03-26T02:28:23.512Z,0.74
2023-03-26T02:31:26.726Z,0.74
2023-03-26T02:34:29.924Z,0.69
2023-03-26T02:37:35.828Z,0.83
2023-03-26T02:40:41.858Z,1.14
2023-03-26T02:43:44.575Z,1.57
2023-03-26T02:46:48.742Z,1.61
2023-03-26T02:49:53.028Z,1.59
2023-03-26T02:52:56.589Z,1.23
2023-03-26T02:56:00.612Z,1.08
2023-03-26T02:59:05.769Z,0.94
2023-03-26T03:02:08.651Z,0.77
2023-03-26T03:05:11.837Z,0.71
2023-03-26T03:08:14.547Z,0.66
2023-03-26T03:11:24.777Z,0.57
2023-03-26T03:14:27.928Z,0.47
2023-03-26T03:17:30.905Z,0.45
2023-03-26T03:20:35.904Z,0.30
2023-03-26T03:23:38.906Z,0.24
2023-03-26T03:26:42.500Z,0.13
2023-03-26T03:29:46.854Z,0.39
2023-03-26T03:32:54.983Z,0.50
2023-03-26T03:35:59.485Z,0.60
2023-03-26T03:39:03.011Z,0.63
2023-03-26T03:42:06.924Z,0.63
2023-03-26T03:45:13.691Z,0.36
2023-03-26T03:48:18.949Z,0.34
2023-03-26T03:51:22.151Z,0.40
2023-03-26T03:54:25.855Z,0.29
2023-03-26T03:57:31.190Z,0.33
2023-03-26T04:00:34.857Z,0.14
2023-03-26T04:03:39.062Z,0.02
2023-03-26T04:06:42.779Z,-0.02
2023-03-26T04:09:46.655Z,-0.17
2023-03-26T04:12:49.772Z,-0.14
2023-03-26T04:15:53.208Z,-0.06
2023-03-26T04:18:57.481Z,0.18
2023-03-26T04:22:03.077Z,0.27
2023-03-26T04:25:07.679Z,0.21
2023-03-26T04:28:32.596Z,1.00
2023-03-26T04:31:36.372Z,0.85
2023-03-26T04:34:40.205Z,1.03
2023-03-26T04:37:46.073Z,0.90
2023-03-26T04:40:49.403Z,0.66
2023-03-26T04:43:54.081Z,1.04
2023-03-26T04:46:57.337Z,0.96
2023-03-26T04:50:01.272Z,1.01
2023-03-26T04:53:04.788Z,1.03
2023-03-26T04:56:20.635Z,1.00
2023-03-26T04:59:33.293Z,1.12
2023-03-26T05:02:40.001Z,1.23
2023-03-26T05:05:43.209Z,1.56
2023-03-26T05:08:46.360Z,1.65
2023-03-26T05:11:53.244Z,1.74
2023-03-26T05:14:55.995Z,1.75
2023-03-26T05:18:00.990Z,2.02
2023-03-26T05:21:04.516Z,1.97
2023-03-26T05:24:07.848Z,2.40
2023-03-26T05:27:17.117Z,2.90
2023-03-26T05:30:21.561Z,3.16
2023-03-26T05:33:24.643Z,3.36
2023-03-26T05:36:29.071Z,3.60
2023-03-26T05:39:33.681Z,3.79
2023-03-26T05:42:39.659Z,4.08
2023-03-26T05:45:42.539Z,4.25
2023-03-26T05:48:47.267Z,4.46
2023-03-26T05:51:50.506Z,4.44
2023-03-26T05:54:54.078Z,4.73
2023-03-26T05:58:10.720Z,6.47
2023-03-26T06:01:22.755Z,7.99
2023-03-26T06:04:28.680Z,8.84
2023-03-26T06:07:34.079Z,8.41
2023-03-26T06:10:39.504Z,8.33
2023-03-26T06:13:42.908Z,7.96
2023-03-26T06:16:46.507Z,7.53
2023-03-26T06:19:49.564Z,7.16
2023-03-26T06:22:53.476Z,6.88
2023-03-26T06:25:56.861Z,7.20
2023-03-26T06:29:00.605Z,7.62
2023-03-26T06:32:16.174Z,8.46
2023-03-26T06:35:19.988Z,8.16
2023-03-26T06:38:22.875Z,7.98
2023-03-26T06:41:26.170Z,7.87
2023-03-26T06:44:29.347Z,8.37
2023-03-26T06:47:32.885Z,8.99
2023-03-26T06:50:38.943Z,8.98
2023-03-26T06:53:42.708Z,8.63
2023-03-26T06:56:45.641Z,8.62
2023-03-26T06:59:49.070Z,8.57
2023-03-26T07:02:55.854Z,8.18
2023-03-26T07:06:09.743Z,8.18
2023-03-26T07:09:19.916Z,9.60
2023-03-26T07:12:25.786Z,15.17
2023-03-26T07:15:29.279Z,18.97
2023-03-26T07:18:32.714Z,19.85
2023-03-26T07:21:36.631Z,18.17
2023-03-26T07:24:41.017Z,15.87
2023-03-26T07:28:05.466Z,17.51
2023-03-26T07:31:27.993Z,21.89
2023-03-26T07:34:46.218Z,22.49
2023-03-26T07:37:55.901Z,22.37
2023-03-26T07:41:39.031Z,21.64
2023-03-26T07:44:57.814Z,22.75
2023-03-26T07:48:02.213Z,22.45
2023-03-26T07:51:07.200Z,22.76
2023-03-26T07:54:13.156Z,24.34
2023-03-26T07:57:28.482Z,26.23
2023-03-26T08:00:40.818Z,26.96
2023-03-26T08:03:47.884Z,25.45
2023-03-26T08:07:39.488Z,22.87
2023-03-26T08:11:01.883Z,22.96
2023-03-26T08:14:05.671Z,20.66
2023-03-26T08:17:14.306Z,18.13
2023-03-26T08:20:44.976Z,18.19
2023-03-26T08:24:06.412Z,21.38
2023-03-26T08:27:29.646Z,18.40
2023-03-26T08:30:33.433Z,16.94
2023-03-26T08:33:38.402Z,20.86
2023-03-26T08:36:41.562Z,24.34
2023-03-26T08:39:45.075Z,25.23
2023-03-26T08:43:07.124Z,22.63
2023-03-26T08:46:15.927Z,21.01
2023-03-26T08:49:40.331Z,24.14
2023-03-26T08:53:13.791Z,24.06
2023-03-26T08:56:32.631Z,21.04
2023-03-26T08:59:50.924Z,17.92
2023-03-26T09:03:12.617Z,15.73
2023-03-26T09:06:40.908Z,14.83
2023-03-26T09:10:05.073Z,15.01
2023-03-26T09:13:25.924Z,14.57
2023-03-26T09:16:53.532Z,14.86
2023-03-26T09:20:14.450Z,14.37
2023-03-26T09:23:52.665Z,15.02
2023-03-26T09:27:17.681Z,14.76
2023-03-26T09:30:51.651Z,15.55
2023-03-26T09:34:16.705Z,15.16
2023-03-26T09:37:28.596Z,14.72
2023-03-26T09:40:50.778Z,14.79
2023-03-26T09:44:15.853Z,14.97
2023-03-26T09:47:24.622Z,15.33
2023-03-26T09:51:22.388Z,15.89
2023-03-26T09:54:51.068Z,15.76
2023-03-26T09:58:25.391Z,15.69
2023-03-26T10:01:47.996Z,15.71
2023-03-26T10:04:59.652Z,15.87
2023-03-26T10:08:34.382Z,16.04
2023-03-26T10:11:56.083Z,15.39
2023-03-26T10:15:04.591Z,15.51
2023-03-26T10:18:29.979Z,15.59
2023-03-26T10:22:10.693Z,15.31
2023-03-26T10:25:39.290Z,15.80
2023-03-26T10:29:06.704Z,16.09
2023-03-26T10:32:32.089Z,15.83
2023-03-26T10:35:38.086Z,16.13
2023-03-26T10:38:59.649Z,16.04
2023-03-26T10:42:31.304Z,16.17
2023-03-26T10:45:53.050Z,16.46
2023-03-26T10:49:30.560Z,16.43
2023-03-26T10:52:41.598Z,16.06
2023-03-26T10:55:47.997Z,15.99
2023-03-26T10:58:51.460Z,15.80
2023-03-26T11:02:00.368Z,15.96
2023-03-26T11:05:26.397Z,16.23
2023-03-26T11:08:54.594Z,16.44
2023-03-26T11:12:26.416Z,16.61
2023-03-26T11:15:38.198Z,16.45
2023-03-26T11:19:20.250Z,16.63
2023-03-26T11:22:25.622Z,16.42
2023-03-26T11:25:43.772Z,16.49
2023-03-26T11:29:31.386Z,16.50
2023-03-26T11:32:41.508Z,16.73
2023-03-26T11:35:51.425Z,16.44
2023-03-26T11:38:57.909Z,16.70
2023-03-26T11:42:12.348Z,16.68
2023-03-26T11:45:24.153Z,16.77
2023-03-26T11:48:41.899Z,16.79
2023-03-26T11:51:48.841Z,16.76
2023-03-26T11:54:51.579Z,16.51
2023-03-26T11:57:58.368Z,16.79
2023-03-26T12:01:05.478Z,16.26
2023-03-26T12:04:25.206Z,16.27
2023-03-26T12:07:33.688Z,16.62
2023-03-26T12:10:39.357Z,16.49
2023-03-26T12:13:52.867Z,16.62
2023-03-26T12:17:12.516Z,16.74
2023-03-26T12:20:27.469Z,16.84
2023-03-26T12:23:43.999Z,16.63
2023-03-26T12:26:46.753Z,16.18
2023-03-26T12:30:00.217Z,16.32
2023-03-26T12:33:15.182Z,16.27
2023-03-26T12:36:25.611Z,16.32
2023-03-26T12:40:09.945Z,16.29
2023-03-26T12:44:56.402Z,16.37
2023-03-26T12:47:54.344Z,16.67
2023-03-26T12:49:56.920Z,16.25
2023-03-26T12:53:17.972Z,16.17
2023-03-26T12:57:12.082Z,16.23
2023-03-26T13:00:57.310Z,16.49
2023-03-26T13:04:21.615Z,16.77
2023-03-26T13:07:44.590Z,16.73
2023-03-26T13:10:58.671Z,16.87
2023-03-26T13:14:07.804Z,16.96
2023-03-26T13:17:57.073Z,16.98
2023-03-26T13:21:03.430Z,17.15
2023-03-26T13:24:18.557Z,16.91
2023-03-26T13:27:55.293Z,17.10
2023-03-26T13:31:17.927Z,16.80
2023-03-26T13:34:30.062Z,16.80
2023-03-26T13:37:48.395Z,16.91
2023-03-26T13:41:28.140Z,16.78
2023-03-26T13:44:31.324Z,16.79
2023-03-26T13:47:42.696Z,17.09
2023-03-26T13:50:58.215Z,17.27
2023-03-26T13:54:24.505Z,16.76
2023-03-26T13:57:35.813Z,16.99
2023-03-26T14:00:54.571Z,16.63
2023-03-26T14:04:23.591Z,16.36
2023-03-26T14:07:39.236Z,16.38
2023-03-26T14:10:48.877Z,16.48
2023-03-26T14:14:06.718Z,16.42
2023-03-26T14:17:36.722Z,16.50
2023-03-26T14:21:08.275Z,16.32
2023-03-26T14:24:23.316Z,16.48
2023-03-26T14:27:51.090Z,16.49
2023-03-26T14:31:12.504Z,16.43
2023-03-26T14:34:45.473Z,16.32
2023-03-26T14:37:51.047Z,15.85
2023-03-26T14:41:16.868Z,15.54
2023-03-26T14:44:47.659Z,15.51
2023-03-26T14:48:09.895Z,15.77
2023-03-26T14:51:34.432Z,15.81
2023-03-26T14:54:42.981Z,16.05
2023-03-26T14:57:54.746Z,16.12
2023-03-26T15:01:20.760Z,15.97
2023-03-26T15:04:32.705Z,15.96
2023-03-26T15:08:11.524Z,15.82
2023-03-26T15:11:52.981Z,15.94
2023-03-26T15:15:17.091Z,15.83
2023-03-26T15:18:47.358Z,15.64
2023-03-26T15:22:05.358Z,15.33
2023-03-26T15:25:26.956Z,15.25
2023-03-26T15:28:48.490Z,15.11
2023-03-26T15:32:25.966Z,15.25
2023-03-26T15:35:40.900Z,15.23
2023-03-26T15:38:58.976Z,15.29
2023-03-26T15:42:25.659Z,15.31
2023-03-26T15:45:38.501Z,15.29
2023-03-26T15:49:00.141Z,15.25
2023-03-26T15:52:22.108Z,15.04
2023-03-26T15:55:31.289Z,14.84
2023-03-26T15:58:48.156Z,14.68
2023-03-26T16:02:19.410Z,14.62
2023-03-26T16:05:27.796Z,14.31
2023-03-26T16:08:52.997Z,14.07
2023-03-26T16:12:03.579Z,13.86
2023-03-26T16:15:07.313Z,13.73
2023-03-26T16:18:17.000Z,13.67
2023-03-26T16:21:34.560Z,13.60
2023-03-26T16:24:46.638Z,13.57
2023-03-26T16:28:06.571Z,13.44
2023-03-26T16:31:23.593Z,13.35
2023-03-26T16:34:53.340Z,13.31
2023-03-26T16:38:12.176Z,13.34
2023-03-26T16:41:29.629Z,13.29
2023-03-26T16:44:51.914Z,13.22
2023-03-26T16:48:17.112Z,13.15
2023-03-26T16:51:38.519Z,13.08
2023-03-26T16:55:25.956Z,13.01
2023-03-26T16:58:34.465Z,12.93
2023-03-26T17:01:46.966Z,12.85
2023-03-26T17:04:57.301Z,12.83
2023-03-26T17:08:35.476Z,12.78
2023-03-26T17:12:19.426Z,12.66
2023-03-26T17:15:34.469Z,12.66
2023-03-26T17:19:08.090Z,12.59
2023-03-26T17:22:36.909Z,12.48
2023-03-26T17:26:16.553Z,12.42
2023-03-26T17:29:27.342Z,12.38
2023-03-26T17:32:55.561Z,12.31
2023-03-26T17:36:13.198Z,12.27
2023-03-26T17:39:22.413Z,12.25
2023-03-26T17:42:28.311Z,12.28
2023-03-26T17:45:36.283Z,12.28
2023-03-26T17:48:46.904Z,12.24
2023-03-26T17:51:58.344Z,12.47
2023-03-26T17:55:02.255Z,12.49
2023-03-26T17:58:23.375Z,12.51
2023-03-26T18:01:39.425Z,12.45
2023-03-26T18:04:47.784Z,12.48
2023-03-26T18:08:02.861Z,12.50
2023-03-26T18:11:24.389Z,12.50
2023-03-26T18:15:14.015Z,12.44
2023-03-26T18:18:31.177Z,12.42
2023-03-26T18:21:39.259Z,12.41
2023-03-26T18:24:45.210Z,12.38
2023-03-26T18:27:48.900Z,12.34
2023-03-26T18:30:52.118Z,12.35
2023-03-26T18:33:59.192Z,12.36
2023-03-26T18:37:14.821Z,12.31
2023-03-26T18:40:21.425Z,12.24
2023-03-26T18:43:34.459Z,12.24
2023-03-26T18:46:38.442Z,12.23
2023-03-26T18:49:46.078Z,12.14
2023-03-26T18:52:49.011Z,12.32
2023-03-26T18:55:52.385Z,12.39
2023-03-26T18:58:58.484Z,12.41
2023-03-26T19:02:13.966Z,12.40
2023-03-26T19:05:19.211Z,12.38
2023-03-26T19:08:25.137Z,12.38
2023-03-26T19:11:28.914Z,12.30
2023-03-26T19:14:36.798Z,12.23
2023-03-26T19:17:48.610Z,12.32
2023-03-26T19:20:57.811Z,12.33
2023-03-26T19:24:02.656Z,12.31
2023-03-26T19:27:05.683Z,12.34
2023-03-26T19:30:14.672Z,12.35
2023-03-26T19:33:20.455Z,12.38
2023-03-26T19:36:32.020Z,12.42
2023-03-26T19:39:44.573Z,12.35
2023-03-26T19:42:48.954Z,12.38
2023-03-26T19:45:59.272Z,12.34
2023-03-26T19:49:04.327Z,12.29
2023-03-26T19:52:36.511Z,12.10
2023-03-26T19:55:42.009Z,12.01
2023-03-26T19:58:45.120Z,11.88
2023-03-26T20:01:47.875Z,11.56
2023-03-26T20:04:51.238Z,11.31
2023-03-26T20:07:57.504Z,11.07
2023-03-26T20:11:00.623Z,10.85
2023-03-26T20:14:18.133Z,10.67
2023-03-26T20:17:22.382Z,10.66
2023-03-26T20:20:27.245Z,10.64
2023-03-26T20:23:30.233Z,10.64
2023-03-26T20:26:32.890Z,10.56
2023-03-26T20:29:36.701Z,10.53
2023-03-26T20:32:39.642Z,10.34
2023-03-26T20:35:42.804Z,10.12
2023-03-26T20:38:46.913Z,9.94
2023-03-26T20:41:51.414Z,9.72
2023-03-26T20:44:54.071Z,9.73
2023-03-26T20:47:57.417Z,9.83
2023-03-26T20:51:01.738Z,9.89
2023-03-26T20:54:26.082Z,9.89
2023-03-26T20:57:28.771Z,9.87
2023-03-26T21:00:32.464Z,9.81
2023-03-26T21:03:35.215Z,9.79
2023-03-26T21:06:38.131Z,9.75
2023-03-26T21:09:41.521Z,9.72
2023-03-26T21:12:50.774Z,9.57
2023-03-26T21:15:53.749Z,9.52
2023-03-26T21:18:57.496Z,9.54
2023-03-26T21:22:07.311Z,9.47
2023-03-26T21:25:19.722Z,9.39
2023-03-26T21:28:41.768Z,9.38
2023-03-26T21:31:46.698Z,9.36
2023-03-26T21:34:58.566Z,9.36
2023-03-26T21:38:05.039Z,9.28
2023-03-26T21:41:08.149Z,9.33
2023-03-26T21:44:11.784Z,9.27
2023-03-26T21:47:14.912Z,9.32
2023-03-26T21:50:21.808Z,9.24
2023-03-26T21:53:24.998Z,9.27
2023-03-26T21:56:40.373Z,9.24
2023-03-26T21:59:52.041Z,9.27
2023-03-26T22:03:20.075Z,9.22
2023-03-26T22:06:34.016Z,9.22
2023-03-26T22:09:36.965Z,9.20
2023-03-26T22:12:40.009Z,9.15
2023-03-26T22:15:43.351Z,9.16
2023-03-26T22:18:46.412Z,8.99
2023-03-26T22:21:51.009Z,9.03
2023-03-26T22:24:54.708Z,8.91
2023-03-26T22:27:57.598Z,8.88
2023-03-26T22:31:07.348Z,8.70
2023-03-26T22:34:10.087Z,8.61
2023-03-26T22:37:13.614Z,8.53
2023-03-26T22:40:17.959Z,8.36
2023-03-26T22:43:20.984Z,8.17
2023-03-26T22:46:24.748Z,8.03
2023-03-26T22:49:30.224Z,7.85
2023-03-26T22:52:34.535Z,7.85
2023-03-26T22:55:37.582Z,7.80
2023-03-26T22:58:40.544Z,7.75
2023-03-26T23:01:44.389Z,7.74
2023-03-26T23:04:48.705Z,7.76
2023-03-26T23:07:52.360Z,7.73
2023-03-26T23:10:55.148Z,7.69
2023-03-26T23:13:58.472Z,7.74
2023-03-26T23:17:01.735Z,7.75
2023-03-26T23:20:15.123Z,7.70
2023-03-26T23:23:23.974Z,7.72
2023-03-26T23:26:34.954Z,7.73
2023-03-26T23:29:40.587Z,7.66
2023-03-26T23:32:44.075Z,7.73
2023-03-26T23:35:52.095Z,7.73
2023-03-26T23:38:55.174Z,7.78
2023-03-26T23:41:57.813Z,7.74
2023-03-26T23:45:01.082Z,7.80
2023-03-26T23:48:04.852Z,7.79
2023-03-26T23:51:09.891Z,7.73
2023-03-26T23:54:12.714Z,7.72
2023-03-26T23:57:15.817Z,7.80
